CheckWX is a tool to help pilots better visualize weather data.  It is not intended as a substitute for an official pre-flight weather briefing.

19:32:36 UTC

KLLQ METAR
Monticello Municipal / Ellis Field Airport
Monticello, Arkansas, USA
Current

29 mins ago

KLLQ 161904Z AUTO 00000KT 10SM OVC010 14/11 A3006 RMK AO2 CIG 007V013 T01440111
Observed
Feb-16 @ 19:04 UTC
Visibility
10 SM
Flight Rules
MVFR
Cloud Levels
  • Overcast at 1,000' AGL
Temperature
14°C / 57°F
Dewpoint
11°C / 52°F
Humidity
82%
Altimeter
30.06" Hg
Pressure
1017.92 hPa
Previous

40 mins ago

KLLQ 161853Z AUTO 00000KT 10SM OVC007 14/12 A3006 RMK AO2 CIG 007V011 SLP179 T01440117
Observed
Feb-16 @ 18:53 UTC
Visibility
10 SM
Flight Rules
IFR
Cloud Levels
  • Overcast at 700' AGL
Temperature
14°C / 57°F
Dewpoint
12°C / 54°F
Humidity
88%
Altimeter
30.06" Hg
Pressure
1017.92 hPa
Previous

1 hour ago

KLLQ 161830Z AUTO 00000KT 10SM OVC007 14/11 A3007 RMK AO2 T01390111
Observed
Feb-16 @ 18:30 UTC
Visibility
10 SM
Flight Rules
IFR
Cloud Levels
  • Overcast at 700' AGL
Temperature
14°C / 57°F
Dewpoint
11°C / 52°F
Humidity
82%
Altimeter
30.07" Hg
Pressure
1018.32 hPa